Time;durP1;ratioP1;P1;durP2;ratioP2;P2;SDS_P1;SDS_P2;PMS_P1;PMS_P2;Temp;Humidity;BMP_temperature;BMP_pressure;BME280_temperature;BME280_humidity;BME280_pressure;Samples;Min_cycle;Max_cycle;Signal;HPM_P1;HPM_P2
2021/05/06 00:33:04;;;;;;;2.97;1.90;;;;;;;;;;5034919;28;20120;-40
2021/05/06 00:35:33;;;;;;;6.18;2.38;;;;;;;;;;5035101;28;20041;-42
2021/05/06 01:07:25;;;;;;;1.40;1.08;;;;;;;;;;5039590;28;19975;-43
2021/05/06 01:09:50;;;;;;;3.08;1.95;;;;;;;;;;5038308;28;20032;-42
2021/05/06 01:12:15;;;;;;;2.90;1.77;;;;;;;;;;5041728;28;20074;-43
2021/05/06 01:14:41;;;;;;;8.27;1.80;;;;;;;;;;5040821;28;20029;-41
2021/05/06 01:17:06;;;;;;;7.15;1.55;;;;;;;;;;5037718;28;20017;-42
2021/05/06 01:19:31;;;;;;;3.28;1.15;;;;;;;;;;5039075;28;20022;-41
2021/05/06 01:21:57;;;;;;;2.80;1.92;;;;;;;;;;5040697;28;20029;-41
2021/05/06 01:24:23;;;;;;;3.10;2.25;;;;;;;;;;5039318;28;20017;-41
2021/05/06 01:29:23;;;;;;;4.43;1.98;;;;;;;;;;5039725;28;20017;-40
2021/05/06 01:31:55;;;;;;;5.85;4.57;;;;;;;;;;5042453;28;20151;-40
2021/05/06 01:34:22;;;;;;;8.23;3.22;;;;;;;;;;5039038;28;20040;-41
2021/05/06 01:36:59;;;;;;;5.32;4.10;;;;;;;;;;5040072;28;20023;-40
2021/05/06 02:00:03;;;;;;;4.50;1.25;;;;;;;;;;5039789;28;20036;-43
2021/05/06 02:02:28;;;;;;;3.33;2.33;;;;;;;;;;5034036;28;20024;-41
2021/05/06 02:04:53;;;;;;;4.22;2.65;;;;;;;;;;5039135;28;20388;-43
2021/05/06 02:07:19;;;;;;;2.25;1.67;;;;;;;;;;5037491;28;20480;-41
2021/05/06 02:09:46;;;;;;;7.03;3.50;;;;;;;;;;5040445;28;20067;-41
2021/05/06 02:12:13;;;;;;;2.78;1.98;;;;;;;;;;5039008;28;20345;-41
2021/05/06 02:14:39;;;;;;;3.47;1.77;;;;;;;;;;5039438;28;20036;-40
2021/05/06 02:17:04;;;;;;;7.20;2.90;;;;;;;;;;5039442;28;20388;-41
2021/05/06 02:19:32;;;;;;;2.50;1.55;;;;;;;;;;5037324;28;20039;-41
2021/05/06 02:21:58;;;;;;;2.63;1.48;;;;;;;;;;5039603;28;20492;-41
2021/05/06 02:24:23;;;;;;;1.63;1.27;;;;;;;;;;5043327;28;20056;-41
2021/05/06 02:26:48;;;;;;;2.97;1.52;;;;;;;;;;5042106;28;20471;-43
2021/05/06 02:29:14;;;;;;;2.63;1.52;;;;;;;;;;5043395;28;20408;-41
2021/05/06 02:31:39;;;;;;;3.55;2.13;;;;;;;;;;5037388;28;20044;-41
2021/05/06 02:34:04;;;;;;;11.23;1.58;;;;;;;;;;5038691;28;20029;-40
2021/05/06 02:36:30;;;;;;;3.30;1.45;;;;;;;;;;5039946;28;20052;-43
2021/05/06 02:38:55;;;;;;;2.47;1.60;;;;;;;;;;5041307;28;20025;-42
2021/05/06 02:41:20;;;;;;;5.28;2.05;;;;;;;;;;5041937;28;20183;-40
2021/05/06 02:43:46;;;;;;;3.55;1.20;;;;;;;;;;5039287;28;20014;-42
2021/05/06 02:46:11;;;;;;;2.78;1.80;;;;;;;;;;5039029;28;20033;-39
2021/05/06 02:48:36;;;;;;;3.70;2.53;;;;;;;;;;5036505;28;20024;-40
2021/05/06 02:51:03;;;;;;;2.00;1.30;;;;;;;;;;5041702;28;20033;-40
2021/05/06 02:53:34;;;;;;;4.88;1.30;;;;;;;;;;5036915;28;20017;-40
2021/05/06 03:03:53;;;;;;;2.03;1.83;;;;;;;;;;5036613;28;20076;-40
2021/05/06 03:06:23;;;;;;;3.08;1.52;;;;;;;;;;5035853;28;20036;-40
2021/05/06 03:08:54;;;;;;;5.35;1.60;;;;;;;;;;5035913;28;20025;-42
2021/05/06 03:11:42;;;;;;;1.60;1.20;;;;;;;;;;5036447;28;20064;-39
2021/05/06 03:24:47;;;;;;;2.42;1.30;;;;;;;;;;5038962;28;20040;-40
2021/05/06 03:27:15;;;;;;;2.42;0.85;;;;;;;;;;5039298;28;20032;-40
2021/05/06 03:29:49;;;;;;;6.72;1.85;;;;;;;;;;5036994;28;20021;-40
2021/05/06 03:32:28;;;;;;;3.53;2.08;;;;;;;;;;5035843;28;20029;-41
2021/05/06 04:37:46;;;;;;;3.38;2.45;;;;;;;;;;5037155;28;20036;-43
2021/05/06 04:55:54;;;;;;;3.92;2.13;;;;;;;;;;5035920;28;20114;-42
2021/05/06 05:03:36;;;;;;;1.98;1.33;;;;;;;;;;5032921;28;20273;-44
2021/05/06 05:06:02;;;;;;;3.65;1.90;;;;;;;;;;5036211;28;20456;-41
2021/05/06 05:08:41;;;;;;;2.75;1.83;;;;;;;;;;5033811;28;20052;-43
2021/05/06 05:11:35;;;;;;;3.25;2.35;;;;;;;;;;5034977;28;20057;-44
2021/05/06 05:26:51;;;;;;;6.18;3.38;;;;;;;;;;5036913;28;20029;-42
2021/05/06 05:29:16;;;;;;;3.95;2.63;;;;;;;;;;5034828;28;20017;-41
2021/05/06 05:31:42;;;;;;;6.85;2.22;;;;;;;;;;5039675;28;20048;-42
2021/05/06 05:36:54;;;;;;;5.47;3.92;;;;;;;;;;5042137;28;20043;-42
2021/05/06 05:39:31;;;;;;;6.47;5.03;;;;;;;;;;5038243;28;20056;-44
2021/05/06 05:55:08;;;;;;;3.35;2.38;;;;;;;;;;5039133;28;20035;-44
2021/05/06 05:57:33;;;;;;;5.28;2.97;;;;;;;;;;5041594;28;20097;-42
2021/05/06 05:59:59;;;;;;;20.98;5.55;;;;;;;;;;5040063;28;20028;-42
2021/05/06 06:02:24;;;;;;;6.22;3.40;;;;;;;;;;5035174;28;20021;-43
2021/05/06 06:04:49;;;;;;;6.15;2.78;;;;;;;;;;5037473;28;20030;-42
2021/05/06 06:07:15;;;;;;;4.60;2.90;;;;;;;;;;5042334;28;20017;-42
2021/05/06 06:09:40;;;;;;;4.15;3.72;;;;;;;;;;5042729;28;20361;-41
2021/05/06 06:12:05;;;;;;;42.78;11.18;;;;;;;;;;5040676;28;20026;-39
2021/05/06 06:17:19;;;;;;;17.02;4.63;;;;;;;;;;5028841;28;20044;-41
2021/05/06 06:19:49;;;;;;;6.57;5.32;;;;;;;;;;5037153;28;20049;-39
2021/05/06 06:22:17;;;;;;;11.90;6.30;;;;;;;;;;5039597;28;20061;-41
2021/05/06 06:24:43;;;;;;;12.65;5.40;;;;;;;;;;5036861;28;20084;-41
2021/05/06 06:27:08;;;;;;;7.68;4.65;;;;;;;;;;5035477;28;20022;-41
2021/05/06 06:29:34;;;;;;;4.38;2.13;;;;;;;;;;5037312;28;20132;-44
2021/05/06 06:32:02;;;;;;;4.43;2.05;;;;;;;;;;5037785;28;20036;-45
2021/05/06 06:34:27;;;;;;;5.90;3.72;;;;;;;;;;5037151;28;20017;-44
2021/05/06 06:36:52;;;;;;;5.72;3.20;;;;;;;;;;5040092;28;20025;-41
2021/05/06 06:39:18;;;;;;;5.20;2.95;;;;;;;;;;5037609;28;20129;-41
2021/05/06 06:41:43;;;;;;;15.70;5.25;;;;;;;;;;5038150;28;20108;-42
2021/05/06 06:44:09;;;;;;;4.70;2.80;;;;;;;;;;5038861;28;20020;-41
2021/05/06 06:46:34;;;;;;;4.07;2.50;;;;;;;;;;5036397;28;20033;-42
2021/05/06 06:49:01;;;;;;;3.90;3.53;;;;;;;;;;5036094;28;20025;-43
2021/05/06 06:51:26;;;;;;;4.65;2.30;;;;;;;;;;5039420;28;20037;-42
2021/05/06 06:53:52;;;;;;;3.83;2.05;;;;;;;;;;5036345;28;20055;-43
2021/05/06 06:56:17;;;;;;;7.15;1.83;;;;;;;;;;5034450;28;20509;-41
2021/05/06 06:58:45;;;;;;;5.10;2.13;;;;;;;;;;5035596;28;20033;-42
2021/05/06 07:01:11;;;;;;;10.55;2.75;;;;;;;;;;5033498;28;20086;-41
2021/05/06 07:03:36;;;;;;;8.63;3.38;;;;;;;;;;5035575;28;20529;-42
2021/05/06 07:06:02;;;;;;;7.88;3.58;;;;;;;;;;5036523;28;20036;-42
2021/05/06 07:08:32;;;;;;;5.70;1.52;;;;;;;;;;5037282;28;20473;-43
2021/05/06 07:10:59;;;;;;;3.88;1.95;;;;;;;;;;5034957;28;20033;-42
2021/05/06 07:13:25;;;;;;;2.45;1.67;;;;;;;;;;5033244;28;20029;-43
2021/05/06 07:16:10;;;;;;;2.75;2.03;;;;;;;;;;5037819;28;20047;-43
2021/05/06 07:18:36;;;;;;;8.15;2.60;;;;;;;;;;5035234;28;20033;-42
2021/05/06 07:21:03;;;;;;;7.55;1.90;;;;;;;;;;5037564;28;20793;-44
2021/05/06 07:23:29;;;;;;;1.92;1.10;;;;;;;;;;5036264;28;20029;-42
2021/05/06 07:25:55;;;;;;;7.63;5.57;;;;;;;;;;5043270;28;20033;-42
2021/05/06 07:28:22;;;;;;;11.77;9.27;;;;;;;;;;5040636;28;20024;-42
2021/05/06 07:30:49;;;;;;;21.65;15.63;;;;;;;;;;5035384;28;20542;-41
2021/05/06 07:33:14;;;;;;;22.40;18.52;;;;;;;;;;5036875;28;20115;-44
2021/05/06 07:35:40;;;;;;;11.23;6.78;;;;;;;;;;5036384;28;20044;-44
2021/05/06 07:38:06;;;;;;;5.78;3.17;;;;;;;;;;5034477;28;20078;-44
2021/05/06 07:40:31;;;;;;;10.27;4.65;;;;;;;;;;5035605;28;20512;-42
2021/05/06 07:42:56;;;;;;;20.90;6.00;;;;;;;;;;5035764;28;20031;-41
2021/05/06 07:45:22;;;;;;;5.38;3.58;;;;;;;;;;5037371;28;20553;-42
2021/05/06 07:47:47;;;;;;;7.00;2.92;;;;;;;;;;5035940;28;20033;-42
2021/05/06 07:50:14;;;;;;;3.53;2.53;;;;;;;;;;5033204;28;20029;-46
2021/05/06 07:52:42;;;;;;;4.32;1.98;;;;;;;;;;5033503;28;20116;-53
2021/05/06 07:55:07;;;;;;;9.18;3.15;;;;;;;;;;5033164;28;20037;-49
2021/05/06 07:57:33;;;;;;;4.20;3.42;;;;;;;;;;5034788;28;20044;-51
2021/05/06 07:59:58;;;;;;;8.45;4.18;;;;;;;;;;5035370;28;20033;-47
2021/05/06 08:02:24;;;;;;;4.22;2.33;;;;;;;;;;5035211;28;20383;-41
2021/05/06 08:04:49;;;;;;;5.32;2.00;;;;;;;;;;5036610;28;20663;-51
2021/05/06 08:07:15;;;;;;;3.67;2.33;;;;;;;;;;5038495;28;20017;-55
2021/05/06 08:09:40;;;;;;;8.50;2.47;;;;;;;;;;5033723;28;20455;-56
2021/05/06 08:12:06;;;;;;;2.67;2.17;;;;;;;;;;5035931;28;20029;-53
2021/05/06 08:14:32;;;;;;;11.77;2.13;;;;;;;;;;5034602;28;20035;-45
2021/05/06 08:16:57;;;;;;;2.88;1.70;;;;;;;;;;5033541;28;20033;-49
2021/05/06 08:19:23;;;;;;;7.60;2.65;;;;;;;;;;5035883;28;20025;-53
2021/05/06 08:21:48;;;;;;;4.20;2.53;;;;;;;;;;5038373;28;20059;-58
2021/05/06 08:24:14;;;;;;;6.95;2.90;;;;;;;;;;5034211;28;20083;-53
2021/05/06 08:26:39;;;;;;;4.72;3.15;;;;;;;;;;5026547;28;20548;-55
2021/05/06 08:29:05;;;;;;;4.75;2.22;;;;;;;;;;5037231;28;20052;-51
2021/05/06 08:31:30;;;;;;;6.80;4.70;;;;;;;;;;5037452;28;20029;-56
2021/05/06 08:33:56;;;;;;;4.75;2.75;;;;;;;;;;5033646;28;20035;-49
2021/05/06 08:36:22;;;;;;;6.10;3.33;;;;;;;;;;5033029;28;20520;-53
2021/05/06 08:38:47;;;;;;;8.70;3.33;;;;;;;;;;5033640;28;20105;-54
2021/05/06 08:41:13;;;;;;;22.55;3.78;;;;;;;;;;5036936;28;20056;-49
2021/05/06 08:43:40;;;;;;;5.95;2.83;;;;;;;;;;5033927;28;20534;-46
2021/05/06 08:46:06;;;;;;;6.35;3.97;;;;;;;;;;5033801;28;20033;-53
2021/05/06 08:48:32;;;;;;;3.38;1.42;;;;;;;;;;5033779;28;20025;-47
2021/05/06 08:50:57;;;;;;;4.10;1.17;;;;;;;;;;5040798;28;20037;-50
2021/05/06 08:53:23;;;;;;;7.15;1.80;;;;;;;;;;5028968;28;20127;-50
2021/05/06 08:55:49;;;;;;;11.50;3.05;;;;;;;;;;5036861;28;20084;-52
2021/05/06 08:58:14;;;;;;;2.80;1.52;;;;;;;;;;5037025;28;20122;-55
2021/05/06 09:00:39;;;;;;;2.30;1.45;;;;;;;;;;5037215;28;20033;-50
2021/05/06 09:03:05;;;;;;;3.63;1.27;;;;;;;;;;5032489;28;20021;-55
2021/05/06 09:05:31;;;;;;;6.85;2.08;;;;;;;;;;5038613;28;20043;-53
2021/05/06 09:07:56;;;;;;;4.93;2.65;;;;;;;;;;5041190;28;20468;-54
2021/05/06 09:10:35;;;;;;;1.88;1.42;;;;;;;;;;5042202;28;20522;-53
2021/05/06 09:13:00;;;;;;;4.82;1.23;;;;;;;;;;5040608;28;20033;-56
2021/05/06 09:15:26;;;;;;;14.43;2.17;;;;;;;;;;5039585;28;20521;-52
2021/05/06 09:17:53;;;;;;;10.40;1.35;;;;;;;;;;5041492;28;20035;-49
2021/05/06 09:20:20;;;;;;;3.58;1.17;;;;;;;;;;5041054;28;20075;-48
2021/05/06 09:22:48;;;;;;;3.70;1.83;;;;;;;;;;5038627;28;20043;-47
2021/05/06 09:25:28;;;;;;;4.38;2.35;;;;;;;;;;5039563;28;20025;-51
2021/05/06 09:28:13;;;;;;;4.80;2.47;;;;;;;;;;5043823;28;20021;-51
2021/05/06 09:30:54;;;;;;;3.00;1.08;;;;;;;;;;5041508;28;20033;-52
2021/05/06 09:33:26;;;;;;;2.33;1.38;;;;;;;;;;5034205;28;20037;-51
2021/05/06 09:35:52;;;;;;;3.33;1.90;;;;;;;;;;5038306;28;20036;-49
2021/05/06 09:38:24;;;;;;;2.15;1.17;;;;;;;;;;5036958;28;20029;-49
2021/05/06 09:40:50;;;;;;;2.60;1.27;;;;;;;;;;5037499;28;20481;-52
2021/05/06 09:43:21;;;;;;;2.42;1.17;;;;;;;;;;5038313;28;20087;-50
2021/05/06 09:45:47;;;;;;;3.17;0.98;;;;;;;;;;5038349;28;20030;-50
2021/05/06 09:48:13;;;;;;;1.30;0.68;;;;;;;;;;5036508;28;20535;-52
2021/05/06 09:50:40;;;;;;;2.67;1.33;;;;;;;;;;5039788;28;20037;-51
2021/05/06 09:53:13;;;;;;;2.05;1.33;;;;;;;;;;5036589;28;20037;-49
2021/05/06 09:55:40;;;;;;;5.13;1.33;;;;;;;;;;5037426;28;20029;-51
2021/05/06 09:58:11;;;;;;;6.45;1.67;;;;;;;;;;5039331;28;20064;-53
2021/05/06 10:00:36;;;;;;;3.45;1.30;;;;;;;;;;5039494;28;20064;-50
2021/05/06 10:03:09;;;;;;;3.22;1.33;;;;;;;;;;5040966;28;20025;-51
2021/05/06 10:05:38;;;;;;;6.53;1.60;;;;;;;;;;5036109;28;20037;-51
2021/05/06 10:08:04;;;;;;;1.65;0.80;;;;;;;;;;5040900;28;20037;-53
2021/05/06 10:10:30;;;;;;;1.65;0.85;;;;;;;;;;5037708;28;20032;-48
2021/05/06 10:12:55;;;;;;;0.93;0.60;;;;;;;;;;5037057;28;20037;-51
2021/05/06 10:15:21;;;;;;;1.90;1.10;;;;;;;;;;5038954;28;20041;-52
2021/05/06 10:17:48;;;;;;;3.10;1.17;;;;;;;;;;5044344;28;20087;-54
2021/05/06 10:20:14;;;;;;;2.05;0.82;;;;;;;;;;5040115;28;20065;-53
2021/05/06 10:22:39;;;;;;;3.13;1.52;;;;;;;;;;5042921;28;20056;-48
2021/05/06 10:25:06;;;;;;;3.13;1.35;;;;;;;;;;5036063;28;20061;-48
2021/05/06 10:27:31;;;;;;;2.42;1.05;;;;;;;;;;5035205;28;20021;-52
2021/05/06 10:29:57;;;;;;;5.07;2.10;;;;;;;;;;5035935;28;20036;-48
2021/05/06 10:32:23;;;;;;;1.50;1.08;;;;;;;;;;5038235;28;20036;-52
2021/05/06 10:34:54;;;;;;;4.85;1.88;;;;;;;;;;5040869;28;20044;-53
2021/05/06 10:37:24;;;;;;;2.55;1.10;;;;;;;;;;5039532;28;20048;-52
2021/05/06 10:39:49;;;;;;;2.67;1.55;;;;;;;;;;5037432;28;20390;-49
2021/05/06 10:42:23;;;;;;;4.72;3.80;;;;;;;;;;5036463;28;20021;-46
2021/05/06 10:44:49;;;;;;;3.40;1.85;;;;;;;;;;5037845;28;20037;-51
2021/05/06 10:47:17;;;;;;;1.90;0.88;;;;;;;;;;5039330;28;20032;-45
2021/05/06 10:49:42;;;;;;;3.65;0.80;;;;;;;;;;5035118;28;20027;-46
2021/05/06 10:52:09;;;;;;;4.32;2.42;;;;;;;;;;5035728;28;20059;-47
2021/05/06 10:54:35;;;;;;;1.88;0.95;;;;;;;;;;5036648;28;20028;-50
2021/05/06 10:57:10;;;;;;;2.65;1.15;;;;;;;;;;5037025;28;20029;-46
2021/05/06 10:59:39;;;;;;;1.10;0.77;;;;;;;;;;5036293;28;20025;-46
2021/05/06 11:02:05;;;;;;;2.72;1.52;;;;;;;;;;5039383;28;20040;-47
2021/05/06 11:04:37;;;;;;;2.30;0.82;;;;;;;;;;5035593;28;20476;-48
2021/05/06 11:07:12;;;;;;;3.33;1.15;;;;;;;;;;5038942;28;20021;-47
2021/05/06 11:09:37;;;;;;;3.55;0.98;;;;;;;;;;5036636;28;20028;-47
2021/05/06 11:12:15;;;;;;;10.93;1.63;;;;;;;;;;5040065;28;20107;-45
2021/05/06 11:14:59;;;;;;;1.55;1.10;;;;;;;;;;5037629;28;20028;-47
2021/05/06 11:17:26;;;;;;;7.70;2.50;;;;;;;;;;5036053;28;20032;-46
2021/05/06 11:19:51;;;;;;;4.50;1.45;;;;;;;;;;5037592;28;20057;-48
2021/05/06 11:22:35;;;;;;;1.85;0.88;;;;;;;;;;5037382;28;20040;-46
2021/05/06 11:25:21;;;;;;;1.25;0.43;;;;;;;;;;5037711;28;20088;-47
2021/05/06 11:27:46;;;;;;;2.47;1.25;;;;;;;;;;5039735;28;20018;-45
2021/05/06 11:30:30;;;;;;;2.58;0.73;;;;;;;;;;5031957;28;20029;-46
2021/05/06 11:32:55;;;;;;;4.53;1.15;;;;;;;;;;5037988;28;20029;-47
2021/05/06 11:35:21;;;;;;;3.38;1.80;;;;;;;;;;5035914;28;20043;-46
2021/05/06 11:37:52;;;;;;;7.47;1.15;;;;;;;;;;5036455;28;20030;-50
2021/05/06 11:40:22;;;;;;;5.55;1.27;;;;;;;;;;5037063;28;20039;-45
2021/05/06 11:42:48;;;;;;;17.45;1.25;;;;;;;;;;5040728;28;20420;-45
2021/05/06 11:45:20;;;;;;;9.70;1.38;;;;;;;;;;5036470;28;20582;-51
2021/05/06 11:47:46;;;;;;;2.42;1.52;;;;;;;;;;5036729;28;20021;-50
2021/05/06 11:50:18;;;;;;;2.00;1.20;;;;;;;;;;5039148;28;20069;-48
2021/05/06 11:52:43;;;;;;;6.70;1.80;;;;;;;;;;5039572;28;20032;-47
2021/05/06 11:55:08;;;;;;;5.15;2.08;;;;;;;;;;5035895;28;20025;-48
2021/05/06 11:57:34;;;;;;;2.60;1.15;;;;;;;;;;5034776;28;20017;-45
2021/05/06 11:59:59;;;;;;;2.70;0.82;;;;;;;;;;5036497;28;20368;-44
2021/05/06 12:02:25;;;;;;;3.13;1.17;;;;;;;;;;5037560;28;20033;-49
2021/05/06 12:04:53;;;;;;;3.35;1.05;;;;;;;;;;5036284;28;20029;-47
2021/05/06 12:07:20;;;;;;;1.05;0.82;;;;;;;;;;5042364;28;20067;-46
2021/05/06 12:09:46;;;;;;;2.13;0.93;;;;;;;;;;5041842;28;20025;-46
2021/05/06 12:12:19;;;;;;;3.95;1.13;;;;;;;;;;5037516;28;20032;-49
2021/05/06 12:14:45;;;;;;;4.82;1.33;;;;;;;;;;5040717;28;20472;-44
2021/05/06 12:17:17;;;;;;;13.65;3.10;;;;;;;;;;5040088;28;20052;-47
2021/05/06 12:19:43;;;;;;;2.42;0.98;;;;;;;;;;5040301;28;20029;-50
2021/05/06 12:22:09;;;;;;;2.28;0.80;;;;;;;;;;5042141;28;20025;-44
2021/05/06 12:24:38;;;;;;;1.45;0.90;;;;;;;;;;5039888;28;20693;-51
2021/05/06 12:27:16;;;;;;;1.10;0.70;;;;;;;;;;5039012;28;20017;-51
2021/05/06 12:29:41;;;;;;;2.80;1.25;;;;;;;;;;5036807;28;20029;-47
2021/05/06 12:32:15;;;;;;;7.78;1.27;;;;;;;;;;5037483;28;20554;-50
2021/05/06 12:34:40;;;;;;;5.28;1.65;;;;;;;;;;5038602;28;20033;-46
2021/05/06 12:37:05;;;;;;;4.20;2.03;;;;;;;;;;5035679;28;20021;-52
2021/05/06 12:39:32;;;;;;;1.77;1.15;;;;;;;;;;5042196;28;20025;-47
2021/05/06 12:41:59;;;;;;;1.70;0.88;;;;;;;;;;5044301;28;20540;-52
2021/05/06 12:44:33;;;;;;;1.98;1.00;;;;;;;;;;5042574;28;20026;-47
2021/05/06 12:47:17;;;;;;;1.85;0.95;;;;;;;;;;5045793;28;20023;-48
2021/05/06 12:49:43;;;;;;;2.08;1.20;;;;;;;;;;5044370;28;20053;-51
2021/05/06 12:52:27;;;;;;;1.70;0.63;;;;;;;;;;5041117;28;20488;-48
2021/05/06 12:54:52;;;;;;;5.72;1.25;;;;;;;;;;5042695;28;20490;-48
2021/05/06 12:57:18;;;;;;;4.50;2.05;;;;;;;;;;5039095;28;20048;-47
2021/05/06 12:59:48;;;;;;;0.88;0.68;;;;;;;;;;5039160;28;20024;-50
2021/05/06 13:02:14;;;;;;;0.65;0.57;;;;;;;;;;5040279;28;20061;-47
2021/05/06 13:04:47;;;;;;;15.40;2.80;;;;;;;;;;5038943;28;20053;-50
2021/05/06 13:07:13;;;;;;;6.00;1.60;;;;;;;;;;5042723;28;20030;-52
2021/05/06 13:09:48;;;;;;;1.90;0.43;;;;;;;;;;5041175;28;20028;-48
2021/05/06 13:12:15;;;;;;;2.05;0.98;;;;;;;;;;5043054;28;20025;-51
2021/05/06 13:14:50;;;;;;;0.77;0.60;;;;;;;;;;5042237;28;20487;-51
2021/05/06 13:17:22;;;;;;;4.60;1.98;;;;;;;;;;5038638;28;20041;-52
2021/05/06 13:19:48;;;;;;;10.80;1.80;;;;;;;;;;5042750;28;20494;-48
2021/05/06 13:22:13;;;;;;;2.58;1.52;;;;;;;;;;5036629;28;20021;-47
2021/05/06 13:24:41;;;;;;;6.50;1.00;;;;;;;;;;5041616;28;20437;-50
2021/05/06 13:27:14;;;;;;;6.88;2.17;;;;;;;;;;5041048;28;20024;-48
2021/05/06 13:29:46;;;;;;;7.38;1.48;;;;;;;;;;5039674;28;20053;-50
2021/05/06 13:32:11;;;;;;;8.38;2.22;;;;;;;;;;5041239;28;20060;-46
2021/05/06 13:34:36;;;;;;;3.58;1.95;;;;;;;;;;5040425;28;20499;-49
2021/05/06 13:37:03;;;;;;;1.67;0.85;;;;;;;;;;5040092;28;20111;-48
2021/05/06 13:39:29;;;;;;;1.67;1.05;;;;;;;;;;5039057;28;20034;-45
2021/05/06 13:41:55;;;;;;;16.73;1.60;;;;;;;;;;5042718;28;20037;-48
2021/05/06 13:44:23;;;;;;;2.80;1.38;;;;;;;;;;5037025;28;20030;-51
2021/05/06 13:46:56;;;;;;;1.08;0.88;;;;;;;;;;5039491;28;20025;-47
2021/05/06 13:49:25;;;;;;;4.60;1.45;;;;;;;;;;5042274;28;20021;-47
2021/05/06 13:51:51;;;;;;;11.38;1.50;;;;;;;;;;5042182;28;20029;-49
2021/05/06 13:54:17;;;;;;;2.67;1.67;;;;;;;;;;5041710;28;20029;-52
2021/05/06 13:56:43;;;;;;;3.17;1.30;;;;;;;;;;5036272;28;20014;-51
2021/05/06 13:59:08;;;;;;;3.22;1.08;;;;;;;;;;5041615;28;20068;-51
2021/05/06 14:01:34;;;;;;;1.50;1.13;;;;;;;;;;5043779;28;20065;-41
2021/05/06 14:03:59;;;;;;;4.63;1.15;;;;;;;;;;5044033;28;20469;-48
2021/05/06 14:06:24;;;;;;;7.57;0.95;;;;;;;;;;5036432;28;20049;-49
2021/05/06 14:08:50;;;;;;;2.72;1.25;;;;;;;;;;5039929;28;20022;-48
2021/05/06 14:11:15;;;;;;;7.13;1.63;;;;;;;;;;5043279;28;20033;-47
2021/05/06 14:13:41;;;;;;;1.17;0.65;;;;;;;;;;5042860;28;20029;-50
2021/05/06 14:16:06;;;;;;;1.45;0.98;;;;;;;;;;5040965;28;20459;-50
2021/05/06 14:18:31;;;;;;;1.08;0.60;;;;;;;;;;5039193;28;20373;-53
2021/05/06 14:21:02;;;;;;;4.60;0.88;;;;;;;;;;5037365;28;20159;-46
2021/05/06 14:23:28;;;;;;;4.07;1.45;;;;;;;;;;5042355;28;20102;-48
2021/05/06 14:25:53;;;;;;;22.38;1.40;;;;;;;;;;5043336;28;20029;-51
2021/05/06 14:28:19;;;;;;;1.77;1.20;;;;;;;;;;5041022;28;20021;-51
2021/05/06 14:30:44;;;;;;;1.48;1.00;;;;;;;;;;5041136;28;20447;-48
2021/05/06 14:33:10;;;;;;;3.22;0.77;;;;;;;;;;5038746;28;20021;-48
2021/05/06 14:35:35;;;;;;;11.80;1.13;;;;;;;;;;5039854;28;20030;-50
2021/05/06 14:38:01;;;;;;;1.17;0.45;;;;;;;;;;5039952;28;20418;-52
2021/05/06 14:40:27;;;;;;;5.93;1.23;;;;;;;;;;5042515;28;20489;-51
2021/05/06 14:42:52;;;;;;;2.47;1.35;;;;;;;;;;5036139;28;20024;-49
2021/05/06 14:45:17;;;;;;;1.75;0.88;;;;;;;;;;5045665;28;20026;-49
2021/05/06 14:47:43;;;;;;;5.88;0.90;;;;;;;;;;5039141;28;20052;-49
2021/05/06 14:50:12;;;;;;;8.50;1.27;;;;;;;;;;5052798;28;20029;-49
2021/05/06 14:52:38;;;;;;;2.25;1.17;;;;;;;;;;5040043;28;20025;-49
2021/05/06 14:55:04;;;;;;;5.85;1.55;;;;;;;;;;5040925;28;20095;-52
2021/05/06 14:57:30;;;;;;;1.10;0.80;;;;;;;;;;5043271;28;20391;-47
2021/05/06 14:59:55;;;;;;;4.65;1.42;;;;;;;;;;5037282;28;20059;-49
2021/05/06 15:02:20;;;;;;;2.33;1.58;;;;;;;;;;5039952;28;20025;-51
2021/05/06 15:04:46;;;;;;;5.38;2.17;;;;;;;;;;5036522;28;20030;-44
2021/05/06 15:07:11;;;;;;;1.15;0.77;;;;;;;;;;5038212;28;20021;-49
2021/05/06 15:09:36;;;;;;;2.33;1.83;;;;;;;;;;5037388;28;20060;-48
2021/05/06 15:12:02;;;;;;;2.55;1.23;;;;;;;;;;5042484;28;20494;-49
2021/05/06 15:14:27;;;;;;;3.33;1.48;;;;;;;;;;5040624;28;20559;-51
2021/05/06 15:16:53;;;;;;;15.30;3.13;;;;;;;;;;5040863;28;20082;-47
2021/05/06 15:19:19;;;;;;;1.35;1.25;;;;;;;;;;5039626;28;20066;-51
2021/05/06 15:21:45;;;;;;;0.90;0.57;;;;;;;;;;5038809;28;20045;-48
2021/05/06 15:24:10;;;;;;;8.30;1.55;;;;;;;;;;5037596;28;20430;-50
2021/05/06 15:26:36;;;;;;;17.83;0.98;;;;;;;;;;5039011;28;20017;-52
2021/05/06 15:29:02;;;;;;;1.70;0.88;;;;;;;;;;5037313;28;20042;-46
2021/05/06 15:31:28;;;;;;;7.45;1.13;;;;;;;;;;5040612;28;20032;-46
2021/05/06 15:33:53;;;;;;;3.55;1.17;;;;;;;;;;5039604;28;20392;-48
2021/05/06 15:36:18;;;;;;;1.92;0.60;;;;;;;;;;5037346;28;20037;-52
2021/05/06 15:38:44;;;;;;;5.93;5.32;;;;;;;;;;5039425;28;20040;-44
2021/05/06 15:41:10;;;;;;;1.90;1.02;;;;;;;;;;5040375;28;20135;-51
2021/05/06 15:43:35;;;;;;;1.52;0.75;;;;;;;;;;5036639;28;20021;-51
2021/05/06 15:46:00;;;;;;;1.77;0.80;;;;;;;;;;5039471;28;20068;-48
2021/05/06 15:48:26;;;;;;;1.05;0.50;;;;;;;;;;5036098;28;20021;-50
2021/05/06 15:50:51;;;;;;;3.50;0.85;;;;;;;;;;5035815;28;20033;-47
2021/05/06 15:53:17;;;;;;;3.17;1.45;;;;;;;;;;5037273;28;20025;-46
2021/05/06 15:55:42;;;;;;;2.67;0.60;;;;;;;;;;5033827;28;20045;-48
2021/05/06 15:58:08;;;;;;;1.98;0.50;;;;;;;;;;5036952;28;20528;-48
2021/05/06 16:00:34;;;;;;;2.92;0.68;;;;;;;;;;5040029;28;20435;-47
2021/05/06 16:03:06;;;;;;;2.58;0.75;;;;;;;;;;5036064;28;20113;-47
2021/05/06 16:05:31;;;;;;;1.60;1.00;;;;;;;;;;5041602;28;20420;-51
2021/05/06 16:07:57;;;;;;;3.42;1.02;;;;;;;;;;5041616;28;20079;-46
2021/05/06 16:10:23;;;;;;;1.33;0.65;;;;;;;;;;5036774;28;20088;-48
2021/05/06 16:12:48;;;;;;;3.08;1.05;;;;;;;;;;5039362;28;20025;-48
2021/05/06 16:15:14;;;;;;;2.45;0.57;;;;;;;;;;5036631;28;20030;-49
2021/05/06 16:17:40;;;;;;;3.17;1.25;;;;;;;;;;5035302;28;20460;-42
2021/05/06 16:20:12;;;;;;;10.77;1.90;;;;;;;;;;5040488;28;20118;-48
2021/05/06 16:22:38;;;;;;;3.85;1.67;;;;;;;;;;5036887;28;20068;-45
2021/05/06 16:25:04;;;;;;;3.03;0.98;;;;;;;;;;5037425;28;20099;-45
2021/05/06 16:27:29;;;;;;;3.92;1.02;;;;;;;;;;5035649;28;20029;-45
2021/05/06 16:29:54;;;;;;;3.15;0.70;;;;;;;;;;5038974;28;20022;-50
2021/05/06 16:32:20;;;;;;;10.77;2.38;;;;;;;;;;5041294;28;20507;-48
2021/05/06 16:34:45;;;;;;;2.58;1.38;;;;;;;;;;5036059;28;20032;-49
2021/05/06 16:37:56;;;;;;;5.53;0.73;;;;;;;;;;5036090;28;20055;-48
2021/05/06 16:40:07;;;;;;;9.20;1.90;;;;;;;;;;5030408;28;20172;-45
2021/05/06 16:45:18;;;;;;;18.92;2.00;;;;;;;;;;5027430;28;20114;-43
2021/05/06 16:47:43;;;;;;;16.92;2.20;;;;;;;;;;5038099;28;20061;-46
2021/05/06 16:50:09;;;;;;;4.30;1.30;;;;;;;;;;5036843;28;20013;-41
2021/05/06 16:52:34;;;;;;;1.95;0.80;;;;;;;;;;5036465;28;20470;-47
2021/05/06 16:55:01;;;;;;;7.30;0.77;;;;;;;;;;5037693;28;20032;-44
2021/05/06 16:57:27;;;;;;;2.30;1.20;;;;;;;;;;5038222;28;20127;-47
2021/05/06 16:59:52;;;;;;;2.95;1.13;;;;;;;;;;5036967;28;20112;-47
2021/05/06 17:02:17;;;;;;;4.85;1.35;;;;;;;;;;5039420;28;20037;-46
2021/05/06 17:04:43;;;;;;;3.45;1.10;;;;;;;;;;5036522;28;20043;-46
2021/05/06 17:07:08;;;;;;;7.55;0.98;;;;;;;;;;5038079;28;20490;-47
2021/05/06 17:09:37;;;;;;;1.77;1.38;;;;;;;;;;5035005;28;20361;-44
2021/05/06 17:12:03;;;;;;;2.30;0.85;;;;;;;;;;5036155;28;20028;-44
2021/05/06 17:14:28;;;;;;;1.83;0.98;;;;;;;;;;5034875;28;20021;-43
2021/05/06 17:16:55;;;;;;;5.15;1.30;;;;;;;;;;5038199;28;20017;-51
2021/05/06 17:19:21;;;;;;;3.22;1.02;;;;;;;;;;5041308;28;20021;-53
2021/05/06 17:21:46;;;;;;;2.72;1.00;;;;;;;;;;5038775;28;20078;-46
2021/05/06 17:24:11;;;;;;;5.78;1.73;;;;;;;;;;5036055;28;20138;-47
2021/05/06 17:26:36;;;;;;;25.60;3.38;;;;;;;;;;5043488;28;20468;-47
2021/05/06 17:29:02;;;;;;;5.13;1.70;;;;;;;;;;5043698;28;20041;-44
2021/05/06 17:31:28;;;;;;;6.68;1.27;;;;;;;;;;5039023;28;20024;-46
2021/05/06 17:33:53;;;;;;;9.57;2.00;;;;;;;;;;5043289;28;20030;-48
2021/05/06 17:36:23;;;;;;;11.70;1.80;;;;;;;;;;5041798;28;20048;-42
2021/05/06 17:38:49;;;;;;;1.02;0.55;;;;;;;;;;5039772;28;20497;-47
2021/05/06 17:41:14;;;;;;;3.75;1.40;;;;;;;;;;5042347;28;20044;-48
2021/05/06 17:43:39;;;;;;;0.95;0.65;;;;;;;;;;5039319;28;20029;-46
2021/05/06 17:46:05;;;;;;;1.83;1.42;;;;;;;;;;5039160;28;20017;-52
2021/05/06 17:48:30;;;;;;;8.15;1.67;;;;;;;;;;5039456;28;20021;-47
2021/05/06 17:50:55;;;;;;;2.25;1.60;;;;;;;;;;5045052;28;20032;-48
2021/05/06 17:53:21;;;;;;;3.00;0.65;;;;;;;;;;5042085;28;20021;-46
2021/05/06 17:55:46;;;;;;;9.48;2.08;;;;;;;;;;5037815;28;20029;-48
2021/05/06 17:58:11;;;;;;;2.33;1.25;;;;;;;;;;5043673;28;20110;-47
2021/05/06 18:00:37;;;;;;;3.70;1.35;;;;;;;;;;5038333;28;20072;-48
2021/05/06 18:03:02;;;;;;;2.28;0.57;;;;;;;;;;5040079;28;20044;-50
2021/05/06 18:05:28;;;;;;;8.18;4.90;;;;;;;;;;5041457;28;20460;-52
2021/05/06 18:07:53;;;;;;;4.35;1.83;;;;;;;;;;5040272;28;20075;-48
2021/05/06 18:10:34;;;;;;;7.15;1.27;;;;;;;;;;5040955;28;20527;-50
2021/05/06 18:13:00;;;;;;;10.27;2.25;;;;;;;;;;5040420;28;20025;-48
2021/05/06 18:15:25;;;;;;;13.48;1.27;;;;;;;;;;5044141;28;20371;-45
2021/05/06 18:17:50;;;;;;;9.50;1.88;;;;;;;;;;5038651;28;20040;-46
2021/05/06 18:20:16;;;;;;;1.65;1.10;;;;;;;;;;5040194;28;20045;-44
2021/05/06 18:22:42;;;;;;;3.13;1.02;;;;;;;;;;5036634;28;20118;-45